createdAt,value
2018-12-08T00:00:40.698Z,996.60
2018-12-08T00:01:41.283Z,996.54
2018-12-08T00:02:41.868Z,996.45
2018-12-08T00:03:42.461Z,996.56
2018-12-08T00:04:43.059Z,996.54
2018-12-08T00:05:43.656Z,996.60
2018-12-08T00:06:44.251Z,996.63
2018-12-08T00:07:44.844Z,996.54
2018-12-08T00:08:45.429Z,996.58
2018-12-08T00:09:46.022Z,996.55
2018-12-08T00:10:46.607Z,996.59
2018-12-08T00:11:47.193Z,996.57
2018-12-08T00:12:47.886Z,996.49
2018-12-08T00:13:48.396Z,996.51
2018-12-08T00:14:48.992Z,996.53
2018-12-08T00:15:49.590Z,996.58
2018-12-08T00:16:50.184Z,996.68
2018-12-08T00:17:50.777Z,996.67
2018-12-08T00:18:51.377Z,996.70
2018-12-08T00:19:51.969Z,996.69
2018-12-08T00:20:52.552Z,996.72
2018-12-08T00:21:53.146Z,996.71
2018-12-08T00:22:53.746Z,996.82
2018-12-08T00:23:54.335Z,996.68
2018-12-08T00:24:54.925Z,996.87
2018-12-08T00:25:55.517Z,996.80
2018-12-08T00:26:56.113Z,996.88
2018-12-08T00:27:56.708Z,996.88
2018-12-08T00:28:57.308Z,996.95
2018-12-08T00:29:57.897Z,996.92
2018-12-08T00:30:58.492Z,996.95
2018-12-08T00:31:59.088Z,996.85
2018-12-08T00:32:59.682Z,996.91
2018-12-08T00:34:00.278Z,996.81
2018-12-08T00:35:00.876Z,996.79
2018-12-08T00:36:01.465Z,996.71
2018-12-08T00:37:02.056Z,996.61
2018-12-08T00:38:02.648Z,996.74
2018-12-08T00:39:03.243Z,996.57
2018-12-08T00:40:03.837Z,996.67
2018-12-08T00:41:04.428Z,996.67
2018-12-08T00:42:05.019Z,996.71
2018-12-08T00:43:05.604Z,996.65
2018-12-08T00:44:06.198Z,996.72
2018-12-08T00:45:06.795Z,996.66
2018-12-08T00:46:07.382Z,996.71
2018-12-08T00:47:07.971Z,996.73
2018-12-08T00:48:08.564Z,996.67
2018-12-08T00:49:09.158Z,996.69
2018-12-08T00:50:09.745Z,996.84
2018-12-08T00:51:10.345Z,996.79
2018-12-08T00:52:10.939Z,996.71
2018-12-08T00:53:11.534Z,996.76
2018-12-08T00:54:12.120Z,996.72
2018-12-08T00:55:12.707Z,996.68
2018-12-08T00:56:13.292Z,996.72
2018-12-08T00:57:13.891Z,996.72
2018-12-08T00:58:14.476Z,996.74
2018-12-08T00:59:15.070Z,996.69
2018-12-08T01:00:15.670Z,996.75
2018-12-08T01:01:16.280Z,996.78
2018-12-08T01:02:16.879Z,996.82
2018-12-08T01:03:17.479Z,996.76
2018-12-08T01:04:18.061Z,996.93
2018-12-08T01:05:18.658Z,996.92
2018-12-08T01:06:19.251Z,996.84
2018-12-08T01:07:19.845Z,996.95
2018-12-08T01:08:20.434Z,996.86
2018-12-08T01:09:21.025Z,996.87
2018-12-08T01:10:21.609Z,996.84
2018-12-08T01:11:22.204Z,996.80
2018-12-08T01:12:22.823Z,996.87
2018-12-08T01:13:23.387Z,996.84
2018-12-08T01:14:23.979Z,996.79
2018-12-08T01:15:24.571Z,996.86
2018-12-08T01:16:25.196Z,996.80
2018-12-08T01:17:25.763Z,996.90
2018-12-08T01:18:26.347Z,996.85
2018-12-08T01:19:26.962Z,996.70
2018-12-08T01:20:27.551Z,996.80
2018-12-08T01:21:28.131Z,996.88
2018-12-08T01:22:28.721Z,996.83
2018-12-08T01:23:29.311Z,996.85
2018-12-08T01:24:29.909Z,996.86
2018-12-08T01:25:30.502Z,996.79
2018-12-08T01:26:31.093Z,996.81
2018-12-08T01:27:31.683Z,996.84
2018-12-08T01:28:32.274Z,996.86
2018-12-08T01:29:32.980Z,996.77
2018-12-08T01:30:33.453Z,996.62
2018-12-08T01:31:34.050Z,996.77
2018-12-08T01:32:34.646Z,996.77
2018-12-08T01:33:35.237Z,996.73
2018-12-08T01:34:35.833Z,996.68
2018-12-08T01:35:36.423Z,996.69
2018-12-08T01:36:37.014Z,996.73
2018-12-08T01:37:37.614Z,996.88
2018-12-08T01:38:38.202Z,996.77
2018-12-08T01:39:38.789Z,996.68
2018-12-08T01:40:39.387Z,996.80
2018-12-08T01:41:39.978Z,996.69
2018-12-08T01:42:40.571Z,996.77
2018-12-08T01:43:41.157Z,996.68
2018-12-08T01:44:41.748Z,996.68
2018-12-08T01:45:42.343Z,996.85
2018-12-08T01:46:42.925Z,996.78
2018-12-08T01:47:43.518Z,996.72
2018-12-08T01:48:44.115Z,996.80
2018-12-08T01:49:44.715Z,996.70
2018-12-08T01:50:45.306Z,996.77
2018-12-08T01:51:45.901Z,996.75
2018-12-08T01:52:46.498Z,996.75
2018-12-08T01:53:47.077Z,996.77
2018-12-08T01:54:47.665Z,996.80
2018-12-08T01:55:48.262Z,996.76
2018-12-08T01:56:48.855Z,996.78
2018-12-08T01:57:49.449Z,996.64
2018-12-08T01:58:50.044Z,996.66
2018-12-08T01:59:50.640Z,996.62
2018-12-08T02:00:51.240Z,996.61
2018-12-08T02:01:51.832Z,996.64
2018-12-08T02:02:52.427Z,996.65
2018-12-08T02:03:53.038Z,996.53
2018-12-08T02:04:53.608Z,996.63
2018-12-08T02:05:54.205Z,996.73
2018-12-08T02:06:54.801Z,996.65
2018-12-08T02:07:55.393Z,996.67
2018-12-08T02:08:55.989Z,996.66
2018-12-08T02:09:56.590Z,996.65
2018-12-08T02:10:57.166Z,996.60
2018-12-08T02:11:57.763Z,996.57
2018-12-08T02:12:58.348Z,996.60
2018-12-08T02:13:58.944Z,996.58
2018-12-08T02:14:59.536Z,996.60
2018-12-08T02:16:00.132Z,996.61
2018-12-08T02:17:00.726Z,996.57
2018-12-08T02:18:01.322Z,996.57
2018-12-08T02:19:01.904Z,996.44
2018-12-08T02:20:02.489Z,996.50
2018-12-08T02:21:03.088Z,996.46
2018-12-08T02:22:03.681Z,996.48
2018-12-08T02:23:04.264Z,996.48
2018-12-08T02:24:04.851Z,996.46
2018-12-08T02:25:05.448Z,996.46
2018-12-08T02:26:06.039Z,996.44
2018-12-08T02:27:06.637Z,996.38
2018-12-08T02:28:07.229Z,996.37
2018-12-08T02:29:07.825Z,996.43
2018-12-08T02:30:08.412Z,996.39
2018-12-08T02:31:09.004Z,996.36
2018-12-08T02:32:09.597Z,996.34
2018-12-08T02:33:10.191Z,996.27
2018-12-08T02:34:10.791Z,996.29
2018-12-08T02:35:11.385Z,996.34
2018-12-08T02:36:11.984Z,996.25
2018-12-08T02:37:12.576Z,996.23
2018-12-08T02:38:13.181Z,996.31
2018-12-08T02:39:13.792Z,996.34
2018-12-08T02:40:14.368Z,996.30
2018-12-08T02:41:14.957Z,996.31
2018-12-08T02:42:15.566Z,996.27
2018-12-08T02:43:16.147Z,996.18
2018-12-08T02:44:16.747Z,996.29
2018-12-08T02:45:17.335Z,996.22
2018-12-08T02:46:17.928Z,996.26
2018-12-08T02:47:18.523Z,996.26
2018-12-08T02:48:19.117Z,996.24
2018-12-08T02:49:19.712Z,996.24
2018-12-08T02:50:20.304Z,996.25
2018-12-08T02:51:20.893Z,996.33
2018-12-08T02:52:21.483Z,996.27
2018-12-08T02:53:22.076Z,996.36
2018-12-08T02:54:22.671Z,996.29
2018-12-08T02:55:23.265Z,996.27
2018-12-08T02:56:23.849Z,996.31
2018-12-08T02:57:24.445Z,996.36
2018-12-08T02:58:25.039Z,996.34
2018-12-08T02:59:25.676Z,996.15
2018-12-08T03:00:26.226Z,996.23
2018-12-08T03:01:26.819Z,996.22
2018-12-08T03:02:27.412Z,996.15
2018-12-08T03:03:28.001Z,996.12
2018-12-08T03:04:28.590Z,996.01
2018-12-08T03:05:29.188Z,996.06
2018-12-08T03:06:29.778Z,996.09
2018-12-08T03:07:30.373Z,996.07
2018-12-08T03:08:30.960Z,996.15
2018-12-08T03:09:31.560Z,996.06
2018-12-08T03:10:32.148Z,996.02
2018-12-08T03:11:32.756Z,995.96
2018-12-08T03:12:33.339Z,996.05
2018-12-08T03:13:33.934Z,995.93
2018-12-08T03:14:34.520Z,995.93
2018-12-08T03:15:35.107Z,995.88
2018-12-08T03:16:35.698Z,995.85
2018-12-08T03:17:36.283Z,995.84
2018-12-08T03:18:36.878Z,995.78
2018-12-08T03:19:37.473Z,995.81
2018-12-08T03:20:38.059Z,995.72
2018-12-08T03:21:38.649Z,995.71
2018-12-08T03:22:39.238Z,995.70
2018-12-08T03:23:39.819Z,995.71
2018-12-08T03:24:40.405Z,995.66
2018-12-08T03:25:40.991Z,995.64
2018-12-08T03:26:41.585Z,995.59
2018-12-08T03:27:42.172Z,995.73
2018-12-08T03:28:42.758Z,995.66
2018-12-08T03:29:43.345Z,995.69
2018-12-08T03:30:45.409Z,995.58
2018-12-08T03:31:44.530Z,995.69
2018-12-08T03:32:45.130Z,995.76
2018-12-08T03:33:45.719Z,995.73
2018-12-08T03:34:46.315Z,995.66
2018-12-08T03:35:46.910Z,995.76
2018-12-08T03:36:47.503Z,995.62
2018-12-08T03:37:48.095Z,995.60
2018-12-08T03:38:48.686Z,995.59
2018-12-08T03:39:49.271Z,995.57
2018-12-08T03:40:49.872Z,995.61
2018-12-08T03:41:50.454Z,995.65
2018-12-08T03:42:51.045Z,995.65
2018-12-08T03:43:51.641Z,995.61
2018-12-08T03:44:52.234Z,995.67
2018-12-08T03:45:52.823Z,995.70
2018-12-08T03:46:53.413Z,995.66
2018-12-08T03:47:54.011Z,995.71
2018-12-08T03:48:54.610Z,995.74
2018-12-08T03:49:55.224Z,995.75
2018-12-08T03:50:55.801Z,995.45
2018-12-08T03:51:56.391Z,995.61
2018-12-08T03:52:57.003Z,995.57
2018-12-08T03:53:57.577Z,995.48
2018-12-08T03:54:58.176Z,995.64
2018-12-08T03:55:58.761Z,995.54
2018-12-08T03:56:59.358Z,995.61
2018-12-08T03:57:59.952Z,995.56
2018-12-08T03:59:00.548Z,995.69
2018-12-08T04:00:01.138Z,995.54
2018-12-08T04:01:01.723Z,995.38
2018-12-08T04:02:02.322Z,995.52
2018-12-08T04:03:02.907Z,995.59
2018-12-08T04:04:03.501Z,995.48
2018-12-08T04:05:04.100Z,995.54
2018-12-08T04:06:04.692Z,995.59
2018-12-08T04:07:05.285Z,995.61
2018-12-08T04:08:05.885Z,995.62
2018-12-08T04:09:06.481Z,995.71
2018-12-08T04:10:07.070Z,995.57
2018-12-08T04:11:07.665Z,995.69
2018-12-08T04:12:08.254Z,995.54
2018-12-08T04:13:08.846Z,995.61
2018-12-08T04:14:09.434Z,995.77
2018-12-08T04:15:10.032Z,995.63
2018-12-08T04:16:10.628Z,995.52
2018-12-08T04:17:11.226Z,995.42
2018-12-08T04:18:11.815Z,995.55
2018-12-08T04:19:12.409Z,995.53
2018-12-08T04:20:13.005Z,995.46
2018-12-08T04:21:13.595Z,995.51
2018-12-08T04:22:14.185Z,995.52
2018-12-08T04:23:14.780Z,995.55
2018-12-08T04:24:15.386Z,995.60
2018-12-08T04:25:15.969Z,995.46
2018-12-08T04:26:16.562Z,995.27
2018-12-08T04:27:17.156Z,995.30
2018-12-08T04:28:17.749Z,995.41
2018-12-08T04:29:18.346Z,995.05
2018-12-08T04:30:18.941Z,995.23
2018-12-08T04:31:19.537Z,995.25
2018-12-08T04:32:20.124Z,995.31
2018-12-08T04:33:20.731Z,995.34
2018-12-08T04:34:21.312Z,995.37
2018-12-08T04:35:21.919Z,995.35
2018-12-08T04:36:22.497Z,995.35
2018-12-08T04:37:23.089Z,995.32
2018-12-08T04:38:23.685Z,995.35
2018-12-08T04:39:24.280Z,995.45
2018-12-08T04:40:24.870Z,995.56
2018-12-08T04:41:25.459Z,995.44
2018-12-08T04:42:26.058Z,995.48
2018-12-08T04:43:26.652Z,995.51
2018-12-08T04:44:27.261Z,995.50
2018-12-08T04:45:27.841Z,995.50
2018-12-08T04:46:28.426Z,995.54
2018-12-08T04:47:29.023Z,995.55
2018-12-08T04:48:29.619Z,995.79
2018-12-08T04:49:30.210Z,995.70
2018-12-08T04:50:30.807Z,995.59
2018-12-08T04:51:31.391Z,995.51
2018-12-08T04:52:31.991Z,995.55
2018-12-08T04:53:32.572Z,995.62
2018-12-08T04:54:33.163Z,995.60
2018-12-08T04:55:33.758Z,995.35
2018-12-08T04:56:34.347Z,995.60
2018-12-08T04:57:34.936Z,995.45
2018-12-08T04:58:35.533Z,995.39
2018-12-08T04:59:36.128Z,995.47
2018-12-08T05:00:36.724Z,995.45
2018-12-08T05:01:37.320Z,995.37
2018-12-08T05:02:37.906Z,995.47
2018-12-08T05:03:38.505Z,995.39
2018-12-08T05:04:39.094Z,995.41
2018-12-08T05:05:39.689Z,995.44
2018-12-08T05:06:40.378Z,995.41
2018-12-08T05:07:40.890Z,995.40
2018-12-08T05:08:41.484Z,995.51
2018-12-08T05:09:42.076Z,995.36
2018-12-08T05:10:42.674Z,995.37
2018-12-08T05:11:43.268Z,995.45
2018-12-08T05:12:43.944Z,995.49
2018-12-08T05:13:44.536Z,995.49
2018-12-08T05:14:45.131Z,995.48
2018-12-08T05:15:45.729Z,995.50
2018-12-08T05:16:46.322Z,995.47
2018-12-08T05:17:46.921Z,995.48
2018-12-08T05:18:47.515Z,995.38
2018-12-08T05:19:48.100Z,995.40
2018-12-08T05:20:48.691Z,995.44
2018-12-08T05:21:49.293Z,995.32
2018-12-08T05:22:49.882Z,995.39
2018-12-08T05:23:50.476Z,995.38
2018-12-08T05:24:51.080Z,995.42
2018-12-08T05:25:51.661Z,995.42
2018-12-08T05:26:52.248Z,995.26
2018-12-08T05:27:52.844Z,995.33
2018-12-08T05:28:53.435Z,995.21
2018-12-08T05:29:54.026Z,995.28
2018-12-08T05:30:54.611Z,995.30
2018-12-08T05:31:55.209Z,995.31
2018-12-08T05:32:55.803Z,995.26
2018-12-08T05:33:56.389Z,995.11
2018-12-08T05:34:56.977Z,995.12
2018-12-08T05:35:57.571Z,995.15
2018-12-08T05:36:58.168Z,995.08
2018-12-08T05:37:58.766Z,995.04
2018-12-08T05:38:59.363Z,995.11
2018-12-08T05:39:59.960Z,995.02
2018-12-08T05:41:00.564Z,995.07
2018-12-08T05:42:01.155Z,995.22
2018-12-08T05:43:01.753Z,995.16
2018-12-08T05:44:02.341Z,995.18
2018-12-08T05:45:02.928Z,995.23
2018-12-08T05:46:03.520Z,995.18
2018-12-08T05:47:04.129Z,995.19
2018-12-08T05:48:04.707Z,995.18
2018-12-08T05:49:05.296Z,994.95
2018-12-08T05:50:05.882Z,995.21
2018-12-08T05:51:06.479Z,995.14
2018-12-08T05:52:07.068Z,995.03
2018-12-08T05:53:07.651Z,995.11
2018-12-08T05:54:08.246Z,995.26
2018-12-08T05:55:08.842Z,995.13
2018-12-08T05:56:09.430Z,995.15
2018-12-08T05:57:10.020Z,995.16
2018-12-08T05:58:10.610Z,995.25
2018-12-08T05:59:11.205Z,995.15
2018-12-08T06:00:11.802Z,995.17
2018-12-08T06:01:12.384Z,995.13
2018-12-08T06:02:12.983Z,995.16
2018-12-08T06:03:13.572Z,995.24
2018-12-08T06:04:14.161Z,995.13
2018-12-08T06:05:14.753Z,995.23
2018-12-08T06:06:15.346Z,995.26
2018-12-08T06:07:15.931Z,995.10
2018-12-08T06:08:16.527Z,995.22
2018-12-08T06:09:17.121Z,995.06
2018-12-08T06:10:17.716Z,995.19
2018-12-08T06:11:18.311Z,995.19
2018-12-08T06:12:18.907Z,995.25
2018-12-08T06:13:19.495Z,995.17
2018-12-08T06:14:20.078Z,995.14
2018-12-08T06:15:20.684Z,995.06
2018-12-08T06:16:21.268Z,995.18
2018-12-08T06:17:21.857Z,995.06
2018-12-08T06:18:22.446Z,995.05
2018-12-08T06:19:23.041Z,995.16
2018-12-08T06:20:23.625Z,995.03
2018-12-08T06:21:24.212Z,994.93
2018-12-08T06:22:24.800Z,995.10
2018-12-08T06:23:25.388Z,995.03
2018-12-08T06:24:25.984Z,994.97
2018-12-08T06:25:26.583Z,994.97
2018-12-08T06:26:27.178Z,994.51
2018-12-08T06:27:27.773Z,994.89
2018-12-08T06:28:28.366Z,994.98
2018-12-08T06:29:28.963Z,995.02
2018-12-08T06:30:29.549Z,995.08
2018-12-08T06:31:30.140Z,995.08
2018-12-08T06:32:30.737Z,995.05
2018-12-08T06:33:31.333Z,994.98
2018-12-08T06:34:31.917Z,995.14
2018-12-08T06:35:32.510Z,995.03
2018-12-08T06:36:33.113Z,995.04
2018-12-08T06:37:33.706Z,994.98
2018-12-08T06:38:34.303Z,995.08
2018-12-08T06:39:34.894Z,994.99
2018-12-08T06:40:35.487Z,995.03
2018-12-08T06:41:36.079Z,995.08
2018-12-08T06:42:36.667Z,995.01
2018-12-08T06:43:37.267Z,994.98
2018-12-08T06:44:37.857Z,995.07
2018-12-08T06:45:38.442Z,995.01
2018-12-08T06:46:39.029Z,995.02
2018-12-08T06:47:39.614Z,995.08
2018-12-08T06:48:40.212Z,995.02
2018-12-08T06:49:40.796Z,995.09
2018-12-08T06:50:41.391Z,995.09
2018-12-08T06:51:41.986Z,994.93
2018-12-08T06:52:42.585Z,995.07
2018-12-08T06:53:43.175Z,995.15
2018-12-08T06:54:43.772Z,995.12
2018-12-08T06:55:44.368Z,995.12
2018-12-08T06:56:44.962Z,995.13
2018-12-08T06:57:45.555Z,995.20
2018-12-08T06:58:46.155Z,995.18
2018-12-08T06:59:46.742Z,995.08
2018-12-08T07:00:47.327Z,995.07
2018-12-08T07:01:47.937Z,995.18
2018-12-08T07:02:48.519Z,995.14
2018-12-08T07:03:49.119Z,995.18
2018-12-08T07:04:49.712Z,995.00
2018-12-08T07:05:50.303Z,995.12
2018-12-08T07:06:50.899Z,995.06
2018-12-08T07:07:51.497Z,995.04
2018-12-08T07:08:52.091Z,994.97
2018-12-08T07:09:52.687Z,995.02
2018-12-08T07:10:53.287Z,995.05
2018-12-08T07:11:53.878Z,994.91
2018-12-08T07:12:54.480Z,994.96
2018-12-08T07:13:55.070Z,994.97
2018-12-08T07:14:55.666Z,994.96
2018-12-08T07:15:56.258Z,994.94
2018-12-08T07:16:56.849Z,994.87
2018-12-08T07:17:57.557Z,994.77
2018-12-08T07:18:58.045Z,994.83
2018-12-08T07:19:58.626Z,994.90
2018-12-08T07:20:59.210Z,994.94
2018-12-08T07:21:59.806Z,994.96
2018-12-08T07:23:00.395Z,994.95
2018-12-08T07:24:00.991Z,995.01
2018-12-08T07:25:01.586Z,994.98
2018-12-08T07:26:02.186Z,995.07
2018-12-08T07:27:02.849Z,995.04
2018-12-08T07:28:03.374Z,995.02
2018-12-08T07:29:03.959Z,994.99
2018-12-08T07:30:04.557Z,994.97
2018-12-08T07:31:05.144Z,994.97
2018-12-08T07:32:05.743Z,995.07
2018-12-08T07:33:06.346Z,995.08
2018-12-08T07:34:06.945Z,995.10
2018-12-08T07:35:07.534Z,995.01
2018-12-08T07:36:08.131Z,994.97
2018-12-08T07:37:08.739Z,994.88
2018-12-08T07:38:09.354Z,994.98
2018-12-08T07:39:09.952Z,994.90
2018-12-08T07:40:10.544Z,994.92
2018-12-08T07:41:11.145Z,994.98
2018-12-08T07:42:11.746Z,995.04
2018-12-08T07:43:12.340Z,994.93
2018-12-08T07:44:12.941Z,994.92
2018-12-08T07:45:15.186Z,994.98
2018-12-08T07:46:14.134Z,994.96
2018-12-08T07:47:14.734Z,994.97
2018-12-08T07:48:15.329Z,994.99
2018-12-08T07:49:15.928Z,994.89
2018-12-08T07:50:16.523Z,995.06
2018-12-08T07:51:17.118Z,994.97
2018-12-08T07:52:17.725Z,994.92
2018-12-08T07:53:18.319Z,994.90
2018-12-08T07:54:18.918Z,994.85
2018-12-08T07:55:19.518Z,994.85
2018-12-08T07:56:20.120Z,994.94
2018-12-08T07:57:20.714Z,994.98
2018-12-08T07:58:21.315Z,994.84
2018-12-08T07:59:21.914Z,994.91
2018-12-08T08:00:22.513Z,994.89
2018-12-08T08:01:23.109Z,994.80
2018-12-08T08:02:23.710Z,994.91
2018-12-08T08:03:24.299Z,994.95
2018-12-08T08:04:24.900Z,994.93
2018-12-08T08:05:25.501Z,994.85
2018-12-08T08:06:26.094Z,994.83
2018-12-08T08:07:26.696Z,994.85
2018-12-08T08:08:27.292Z,994.88
2018-12-08T08:09:27.893Z,994.90
2018-12-08T08:10:28.495Z,994.78
2018-12-08T08:11:29.092Z,994.80
2018-12-08T08:12:29.689Z,994.85
2018-12-08T08:13:30.282Z,994.88
2018-12-08T08:14:30.880Z,994.86
2018-12-08T08:15:31.487Z,994.77
2018-12-08T08:16:32.082Z,994.78
2018-12-08T08:17:32.679Z,994.76
2018-12-08T08:18:33.282Z,994.78
2018-12-08T08:19:33.878Z,994.79
2018-12-08T08:20:34.472Z,994.70
2018-12-08T08:21:35.070Z,994.75
2018-12-08T08:22:35.670Z,994.69
2018-12-08T08:23:36.260Z,994.74
2018-12-08T08:24:36.861Z,994.70
2018-12-08T08:25:37.457Z,994.72
2018-12-08T08:26:38.058Z,994.65
2018-12-08T08:27:38.660Z,994.70
2018-12-08T08:28:39.259Z,994.80
2018-12-08T08:29:39.867Z,994.67
2018-12-08T08:30:40.463Z,994.72
2018-12-08T08:31:41.060Z,994.67
2018-12-08T08:32:41.664Z,994.69
2018-12-08T08:33:42.264Z,994.58
2018-12-08T08:34:42.864Z,994.54
2018-12-08T08:35:43.455Z,994.66
2018-12-08T08:36:44.054Z,994.72
2018-12-08T08:37:44.648Z,994.84
2018-12-08T08:38:45.240Z,994.80
2018-12-08T08:39:45.839Z,994.79
2018-12-08T08:40:46.430Z,994.81
2018-12-08T08:41:47.021Z,994.78
2018-12-08T08:42:47.615Z,994.82
2018-12-08T08:43:48.211Z,994.81
2018-12-08T08:44:48.802Z,994.84
2018-12-08T08:45:49.401Z,994.87
2018-12-08T08:46:49.994Z,994.77
2018-12-08T08:47:50.585Z,994.66
2018-12-08T08:48:51.184Z,994.73
2018-12-08T08:49:51.777Z,994.83
2018-12-08T08:50:52.377Z,994.77
2018-12-08T08:51:52.976Z,994.74
2018-12-08T08:52:53.577Z,994.72
2018-12-08T08:53:54.181Z,994.68
2018-12-08T08:54:54.781Z,994.65
2018-12-08T08:55:55.375Z,994.69
2018-12-08T08:56:55.974Z,994.66
2018-12-08T08:57:56.569Z,994.71
2018-12-08T08:58:57.173Z,994.66
2018-12-08T08:59:57.763Z,994.54
2018-12-08T09:00:58.368Z,994.50
2018-12-08T09:01:58.971Z,994.48
2018-12-08T09:02:59.590Z,994.46
2018-12-08T09:04:00.186Z,994.49
2018-12-08T09:05:00.788Z,994.46
2018-12-08T09:06:01.402Z,994.48
2018-12-08T09:07:02.011Z,994.49
2018-12-08T09:08:02.604Z,994.51
2018-12-08T09:09:03.203Z,994.56
2018-12-08T09:10:03.807Z,994.56
2018-12-08T09:11:04.406Z,994.57
2018-12-08T09:12:04.998Z,994.53
2018-12-08T09:13:05.596Z,994.53
2018-12-08T09:14:13.052Z,994.55
2018-12-08T09:15:06.782Z,994.45
2018-12-08T09:16:07.383Z,994.40
2018-12-08T09:17:07.987Z,994.39
2018-12-08T09:18:08.584Z,994.52
2018-12-08T09:19:09.181Z,994.43
2018-12-08T09:20:09.782Z,994.41
2018-12-08T09:21:10.381Z,994.51
2018-12-08T09:22:10.980Z,994.42
2018-12-08T09:23:11.579Z,994.45
2018-12-08T09:24:12.174Z,994.47
2018-12-08T09:25:12.774Z,994.42
2018-12-08T09:26:13.372Z,994.37
2018-12-08T09:27:13.973Z,994.64
2018-12-08T09:28:14.571Z,994.60
2018-12-08T09:29:15.179Z,994.49
2018-12-08T09:30:15.771Z,994.43
2018-12-08T09:31:16.373Z,994.52
2018-12-08T09:32:16.974Z,994.55
2018-12-08T09:33:17.575Z,994.36
2018-12-08T09:34:18.174Z,994.30
2018-12-08T09:35:18.769Z,994.54
2018-12-08T09:36:19.369Z,994.47
2018-12-08T09:37:19.965Z,994.45
2018-12-08T09:38:20.561Z,994.52
2018-12-08T09:39:21.160Z,994.45
2018-12-08T09:40:21.760Z,994.59
2018-12-08T09:41:22.361Z,994.52
2018-12-08T09:42:22.953Z,994.53
2018-12-08T09:43:23.555Z,994.45
2018-12-08T09:44:24.156Z,994.44
2018-12-08T09:45:24.765Z,994.39
2018-12-08T09:46:25.363Z,994.49
2018-12-08T09:47:25.967Z,994.53
2018-12-08T09:48:26.559Z,994.57
2018-12-08T09:49:27.154Z,994.63
2018-12-08T09:50:27.753Z,994.48
2018-12-08T09:51:28.353Z,994.59
2018-12-08T09:52:28.944Z,994.55
2018-12-08T09:53:29.545Z,994.55
2018-12-08T09:54:30.150Z,994.64
2018-12-08T09:55:30.748Z,994.51
2018-12-08T09:56:31.345Z,994.42
2018-12-08T09:57:31.944Z,994.53
2018-12-08T09:58:32.539Z,994.48
2018-12-08T09:59:33.137Z,994.42
2018-12-08T10:00:33.739Z,994.55
2018-12-08T10:01:34.348Z,994.50
2018-12-08T10:02:34.931Z,994.52
2018-12-08T10:03:35.519Z,994.43
2018-12-08T10:04:36.122Z,994.48
2018-12-08T10:05:36.720Z,994.54
2018-12-08T10:06:37.322Z,994.52
2018-12-08T10:07:37.914Z,994.49
2018-12-08T10:08:38.512Z,994.55
2018-12-08T10:09:39.124Z,994.61
2018-12-08T10:10:39.714Z,994.41
2018-12-08T10:11:40.306Z,994.51
2018-12-08T10:12:40.899Z,994.51
2018-12-08T10:13:41.502Z,994.59
2018-12-08T10:14:42.105Z,994.64
2018-12-08T10:15:42.707Z,994.47
2018-12-08T10:16:43.317Z,994.61
2018-12-08T10:17:43.907Z,994.57
2018-12-08T10:18:44.509Z,994.48
2018-12-08T10:19:45.112Z,994.51
2018-12-08T10:20:45.712Z,994.56
2018-12-08T10:21:46.314Z,994.66
2018-12-08T10:22:46.908Z,994.32
2018-12-08T10:23:47.512Z,994.63
2018-12-08T10:24:48.112Z,994.54
2018-12-08T10:25:48.711Z,994.60
2018-12-08T10:26:49.315Z,994.60
2018-12-08T10:27:49.921Z,994.54
2018-12-08T10:28:50.516Z,994.66
2018-12-08T10:29:51.104Z,994.68
2018-12-08T10:30:51.705Z,994.73
2018-12-08T10:31:52.310Z,994.62
2018-12-08T10:32:52.901Z,994.82
2018-12-08T10:33:53.508Z,994.71
2018-12-08T10:34:54.089Z,994.71
2018-12-08T10:35:54.694Z,994.75
2018-12-08T10:36:55.285Z,994.81
2018-12-08T10:37:55.877Z,994.74
2018-12-08T10:38:56.475Z,994.72
2018-12-08T10:39:57.065Z,994.74
2018-12-08T10:40:57.669Z,994.74
2018-12-08T10:41:58.268Z,994.72
2018-12-08T10:42:58.860Z,994.59
2018-12-08T10:43:59.457Z,994.74
2018-12-08T10:45:00.052Z,994.70
2018-12-08T10:46:00.717Z,994.69
2018-12-08T10:47:01.261Z,994.68
2018-12-08T10:48:01.866Z,994.69
2018-12-08T10:49:02.465Z,994.64
2018-12-08T10:50:03.076Z,994.71
2018-12-08T10:51:03.684Z,994.65
2018-12-08T10:52:04.280Z,994.63
2018-12-08T10:53:04.893Z,994.76
2018-12-08T10:54:05.497Z,994.70
2018-12-08T10:55:06.090Z,994.66
2018-12-08T10:56:06.691Z,994.69
2018-12-08T10:57:07.311Z,994.78
2018-12-08T10:58:07.892Z,994.58
2018-12-08T10:59:08.494Z,994.35
2018-12-08T11:00:09.091Z,994.64
2018-12-08T11:01:09.681Z,994.76
2018-12-08T11:02:10.284Z,994.69
2018-12-08T11:03:10.886Z,994.71
2018-12-08T11:04:11.487Z,994.70
2018-12-08T11:05:12.083Z,994.77
2018-12-08T11:06:12.683Z,994.67
2018-12-08T11:07:13.278Z,994.70
2018-12-08T11:08:13.880Z,994.67
2018-12-08T11:09:14.484Z,994.75
2018-12-08T11:10:15.085Z,994.72
2018-12-08T11:11:15.686Z,994.78
2018-12-08T11:12:16.290Z,994.53
2018-12-08T11:13:16.888Z,994.68
2018-12-08T11:14:17.493Z,994.73
2018-12-08T11:15:18.095Z,994.76
2018-12-08T11:16:18.695Z,994.75
2018-12-08T11:17:19.292Z,994.77
2018-12-08T11:18:19.896Z,994.78
2018-12-08T11:19:20.489Z,994.87
2018-12-08T11:20:21.096Z,994.84
2018-12-08T11:21:21.692Z,994.83
2018-12-08T11:22:22.286Z,994.89
2018-12-08T11:23:22.890Z,994.88
2018-12-08T11:24:23.489Z,994.79
2018-12-08T11:25:24.092Z,994.84
2018-12-08T11:26:24.683Z,994.82
2018-12-08T11:27:25.276Z,994.78
2018-12-08T11:28:25.879Z,994.84
2018-12-08T11:29:26.471Z,994.86
2018-12-08T11:30:27.073Z,994.76
2018-12-08T11:31:27.677Z,994.75
2018-12-08T11:32:28.272Z,994.86
2018-12-08T11:33:28.868Z,994.83
2018-12-08T11:34:29.539Z,994.65
2018-12-08T11:35:30.067Z,994.79
2018-12-08T11:36:30.671Z,994.80
2018-12-08T11:37:31.263Z,994.74
2018-12-08T11:38:31.863Z,994.75
2018-12-08T11:39:32.463Z,994.71
2018-12-08T11:40:33.061Z,994.62
2018-12-08T11:41:33.650Z,994.80
2018-12-08T11:42:34.243Z,994.84
2018-12-08T11:43:34.847Z,994.81
2018-12-08T11:44:35.449Z,994.75
2018-12-08T11:45:36.041Z,994.85
2018-12-08T11:46:36.693Z,994.81
2018-12-08T11:47:37.296Z,994.67
2018-12-08T11:48:37.887Z,994.72
2018-12-08T11:49:38.487Z,994.77
2018-12-08T11:50:39.091Z,994.82
2018-12-08T11:51:39.688Z,994.78
2018-12-08T11:52:40.287Z,994.79
2018-12-08T11:53:40.907Z,994.73
2018-12-08T11:54:41.489Z,994.72
2018-12-08T11:55:42.089Z,994.74
2018-12-08T11:56:42.692Z,994.74
2018-12-08T11:57:43.290Z,994.72
2018-12-08T11:58:43.892Z,994.81
2018-12-08T11:59:44.492Z,994.75
2018-12-08T12:00:45.086Z,994.76
2018-12-08T12:01:45.679Z,994.70
2018-12-08T12:02:46.272Z,994.63
2018-12-08T12:03:46.872Z,994.79
2018-12-08T12:04:47.466Z,994.73
2018-12-08T12:05:48.066Z,994.64
2018-12-08T12:06:48.668Z,994.73
2018-12-08T12:07:49.268Z,994.72
2018-12-08T12:08:49.884Z,994.67
2018-12-08T12:09:50.473Z,994.73
2018-12-08T12:10:51.091Z,994.76
2018-12-08T12:11:51.683Z,994.66
2018-12-08T12:12:52.283Z,994.67
2018-12-08T12:13:52.881Z,994.65
2018-12-08T12:14:53.487Z,994.55
2018-12-08T12:15:54.079Z,994.65
2018-12-08T12:16:54.679Z,994.44
2018-12-08T12:17:55.271Z,994.61
2018-12-08T12:18:55.879Z,994.65
2018-12-08T12:19:56.477Z,994.64
2018-12-08T12:20:57.082Z,994.66
2018-12-08T12:21:57.678Z,994.63
2018-12-08T12:22:58.282Z,994.66
2018-12-08T12:23:58.879Z,994.55
2018-12-08T12:24:59.475Z,994.54
2018-12-08T12:26:00.081Z,994.58
2018-12-08T12:27:00.683Z,994.59
2018-12-08T12:28:01.298Z,994.46
2018-12-08T12:29:01.887Z,994.58
2018-12-08T12:30:02.495Z,994.61
2018-12-08T12:31:03.092Z,994.58
2018-12-08T12:32:03.684Z,994.60
2018-12-08T12:33:04.290Z,994.57
2018-12-08T12:34:04.883Z,994.50
2018-12-08T12:35:05.485Z,994.62
2018-12-08T12:36:06.097Z,994.64